createdAt,value
2022-10-30T00:00:41.362Z,25.90
2022-10-30T00:03:16.038Z,25.35
2022-10-30T00:05:47.322Z,22.83
2022-10-30T00:08:16.154Z,25.77
2022-10-30T00:10:43.842Z,21.98
2022-10-30T00:13:11.432Z,19.58
2022-10-30T00:15:38.688Z,23.83
2022-10-30T00:18:06.737Z,25.65
2022-10-30T00:20:36.192Z,22.05
2022-10-30T00:23:03.235Z,21.92
2022-10-30T00:25:30.240Z,16.92
2022-10-30T00:27:57.329Z,20.38
2022-10-30T00:30:24.326Z,16.23
2022-10-30T00:32:51.340Z,19.50
2022-10-30T00:35:18.331Z,27.20
2022-10-30T00:37:45.288Z,19.55
2022-10-30T00:40:15.616Z,25.05
2022-10-30T00:42:42.732Z,17.90
2022-10-30T00:45:15.015Z,13.50
2022-10-30T00:47:54.474Z,25.48
2022-10-30T00:50:30.194Z,22.52
2022-10-30T00:53:03.407Z,14.60
2022-10-30T00:55:39.042Z,17.33
2022-10-30T00:58:10.830Z,22.38
2022-10-30T01:00:42.070Z,16.83
2022-10-30T01:03:09.462Z,20.10
2022-10-30T01:05:36.716Z,22.48
2022-10-30T01:08:04.316Z,29.20
2022-10-30T01:10:31.398Z,23.20
2022-10-30T01:13:00.340Z,18.05
2022-10-30T01:15:33.264Z,21.33
2022-10-30T01:18:31.297Z,31.48
2022-10-30T01:21:14.129Z,21.30
2022-10-30T01:23:56.723Z,21.45
2022-10-30T01:26:50.024Z,16.75
2022-10-30T01:29:38.507Z,20.92
2022-10-30T01:32:25.165Z,19.38
2022-10-30T01:35:02.264Z,24.10
2022-10-30T01:37:57.671Z,24.55
2022-10-30T01:40:24.963Z,18.05
2022-10-30T01:42:58.635Z,24.92
2022-10-30T01:45:47.676Z,25.08
2022-10-30T01:48:44.405Z,24.90
2022-10-30T01:51:33.907Z,25.05
2022-10-30T01:54:23.645Z,28.02
2022-10-30T01:57:24.840Z,17.30
2022-10-30T02:00:11.115Z,18.52
2022-10-30T02:02:41.970Z,18.90
2022-10-30T02:05:19.839Z,19.83
2022-10-30T02:07:47.767Z,24.40
2022-10-30T02:10:15.015Z,19.23
2022-10-30T02:12:42.472Z,21.42
2022-10-30T02:15:11.621Z,20.55
2022-10-30T02:17:39.000Z,17.48
2022-10-30T02:20:07.582Z,20.80
2022-10-30T02:22:34.641Z,21.60
2022-10-30T02:25:01.605Z,25.65
2022-10-30T02:27:28.900Z,26.73
2022-10-30T02:29:55.890Z,21.20
2022-10-30T02:32:22.892Z,18.67
2022-10-30T02:34:49.852Z,18.02
2022-10-30T02:37:16.828Z,18.83
2022-10-30T02:39:44.088Z,16.58
2022-10-30T02:42:11.112Z,24.05
2022-10-30T02:44:38.141Z,28.63
2022-10-30T02:47:05.188Z,18.35
2022-10-30T02:49:32.353Z,23.10
2022-10-30T02:52:00.559Z,25.63
2022-10-30T02:54:27.558Z,19.77
2022-10-30T02:56:54.683Z,14.07
2022-10-30T02:59:22.003Z,16.50
2022-10-30T03:01:50.549Z,16.88
2022-10-30T03:04:17.603Z,28.88
2022-10-30T03:06:44.580Z,15.65
2022-10-30T03:09:11.562Z,21.60
2022-10-30T03:11:38.568Z,19.38
2022-10-30T03:14:05.686Z,19.33
2022-10-30T03:16:32.704Z,21.20
2022-10-30T03:18:59.946Z,18.65
2022-10-30T03:21:28.054Z,29.67
2022-10-30T03:23:55.629Z,18.77
2022-10-30T03:26:23.208Z,28.40
2022-10-30T03:29:04.993Z,33.17
2022-10-30T03:31:32.774Z,21.52
2022-10-30T03:34:27.293Z,26.63
2022-10-30T03:36:54.585Z,17.55
2022-10-30T03:39:21.726Z,16.55
2022-10-30T03:41:48.813Z,27.13
2022-10-30T03:44:15.785Z,19.30
2022-10-30T03:46:42.749Z,16.95
2022-10-30T03:49:31.518Z,13.05
2022-10-30T03:52:00.663Z,20.83
2022-10-30T03:54:27.744Z,17.58
2022-10-30T03:56:54.721Z,23.40
2022-10-30T03:59:23.244Z,22.77
2022-10-30T04:02:17.099Z,17.67
2022-10-30T04:04:44.392Z,16.55
2022-10-30T04:07:11.417Z,16.27
2022-10-30T04:09:38.397Z,16.55
2022-10-30T04:12:05.705Z,16.92
2022-10-30T04:14:32.674Z,29.00
2022-10-30T04:16:59.710Z,18.30
2022-10-30T04:19:26.741Z,22.42
2022-10-30T04:21:53.774Z,25.98
2022-10-30T04:24:20.834Z,23.10
2022-10-30T04:26:52.502Z,15.95
2022-10-30T04:29:19.534Z,16.23
2022-10-30T04:31:46.557Z,22.45
2022-10-30T04:34:14.226Z,15.93
2022-10-30T04:36:41.310Z,22.15
2022-10-30T04:39:08.317Z,25.58
2022-10-30T04:41:35.453Z,29.85
2022-10-30T04:44:08.696Z,23.70
2022-10-30T04:46:35.818Z,20.05
2022-10-30T04:49:08.308Z,17.33
2022-10-30T04:51:35.645Z,19.75
2022-10-30T04:54:04.095Z,21.35
2022-10-30T04:56:31.839Z,15.20
2022-10-30T04:58:59.602Z,11.57
2022-10-30T05:01:26.681Z,12.40
2022-10-30T05:03:55.002Z,28.08
2022-10-30T05:06:25.974Z,17.10
2022-10-30T05:08:53.390Z,53.63
2022-10-30T05:11:32.198Z,88.00
2022-10-30T05:13:59.186Z,145.93
2022-10-30T05:16:26.424Z,134.73
2022-10-30T05:18:55.162Z,38.60
2022-10-30T05:21:22.283Z,16.80
2022-10-30T05:23:49.321Z,10.90
2022-10-30T05:26:16.453Z,14.18
2022-10-30T05:28:43.562Z,13.05
2022-10-30T05:31:10.612Z,14.98
2022-10-30T05:33:58.644Z,12.02
2022-10-30T05:36:26.610Z,13.25
2022-10-30T05:38:54.651Z,11.82
2022-10-30T05:41:32.500Z,13.80
2022-10-30T05:43:59.657Z,11.35
2022-10-30T05:46:26.762Z,15.40
2022-10-30T05:48:58.793Z,16.25
2022-10-30T05:51:25.823Z,11.55
2022-10-30T05:53:56.186Z,18.52
2022-10-30T05:56:27.075Z,12.47
2022-10-30T05:58:56.543Z,10.50
2022-10-30T06:01:23.723Z,17.95
2022-10-30T06:03:54.274Z,13.27
2022-10-30T06:06:21.307Z,12.27
2022-10-30T06:08:48.304Z,13.32
2022-10-30T06:11:29.769Z,9.55
2022-10-30T06:13:59.286Z,11.02
2022-10-30T06:16:47.280Z,10.27
2022-10-30T06:19:34.481Z,12.18
2022-10-30T06:22:21.132Z,9.40
2022-10-30T06:24:54.095Z,11.43
2022-10-30T06:27:37.239Z,17.77
2022-10-30T06:30:04.776Z,12.43
2022-10-30T06:32:31.825Z,11.48
2022-10-30T06:34:58.902Z,12.55
2022-10-30T06:37:25.923Z,14.95
2022-10-30T06:39:53.242Z,16.35
2022-10-30T06:42:47.544Z,15.13
2022-10-30T06:45:32.110Z,16.98
2022-10-30T06:48:02.584Z,13.65
2022-10-30T06:50:34.447Z,21.15
2022-10-30T06:53:01.453Z,12.38
2022-10-30T06:55:28.527Z,15.52
2022-10-30T06:58:11.762Z,19.75
2022-10-30T07:03:17.540Z,24.80
2022-10-30T07:05:44.624Z,24.73
2022-10-30T07:08:12.165Z,16.65
2022-10-30T07:10:40.260Z,19.98
2022-10-30T07:13:21.722Z,18.70
2022-10-30T07:16:23.117Z,17.90
2022-10-30T07:18:51.044Z,11.57
2022-10-30T07:21:18.170Z,13.73
2022-10-30T07:23:45.211Z,17.50
2022-10-30T07:26:22.206Z,15.07
2022-10-30T07:28:50.807Z,12.35
2022-10-30T07:31:41.844Z,14.52
2022-10-30T07:34:28.274Z,12.77
2022-10-30T07:37:13.788Z,61.05
2022-10-30T07:42:19.144Z,13.07
2022-10-30T07:45:05.177Z,17.77
2022-10-30T07:47:44.335Z,19.13
2022-10-30T07:50:17.645Z,22.38
2022-10-30T07:52:44.811Z,23.25
2022-10-30T07:55:11.839Z,17.30
2022-10-30T07:57:59.368Z,17.50
2022-10-30T08:00:45.254Z,19.52
2022-10-30T08:03:21.847Z,18.80
2022-10-30T08:05:55.091Z,23.52
2022-10-30T08:08:39.105Z,18.98
2022-10-30T08:11:23.574Z,16.08
2022-10-30T08:13:50.796Z,14.63
2022-10-30T08:16:18.302Z,15.95
2022-10-30T08:18:45.277Z,17.58
2022-10-30T08:21:12.373Z,16.90
2022-10-30T08:23:50.411Z,23.58
2022-10-30T08:26:17.661Z,24.27
2022-10-30T08:28:44.863Z,15.13
2022-10-30T08:31:12.836Z,16.00
2022-10-30T08:33:58.280Z,15.32
2022-10-30T08:36:38.006Z,11.07
2022-10-30T08:39:05.150Z,10.15
2022-10-30T08:42:01.545Z,14.80
2022-10-30T08:44:34.523Z,13.90
2022-10-30T08:47:20.141Z,10.02
2022-10-30T08:49:47.509Z,12.05
2022-10-30T08:52:17.483Z,14.80
2022-10-30T08:54:48.397Z,14.68
2022-10-30T08:57:15.906Z,14.73
2022-10-30T08:59:42.918Z,17.00
2022-10-30T09:02:20.949Z,12.18
2022-10-30T09:05:14.359Z,14.30
2022-10-30T09:08:10.697Z,12.73
2022-10-30T09:10:59.249Z,15.05
2022-10-30T09:13:27.115Z,14.80
2022-10-30T09:16:00.628Z,13.88
2022-10-30T09:18:29.049Z,12.98
2022-10-30T09:20:56.069Z,12.73
2022-10-30T09:23:23.119Z,16.42
2022-10-30T09:25:57.665Z,16.90
2022-10-30T09:28:38.029Z,18.58
2022-10-30T09:31:23.770Z,18.67
2022-10-30T09:33:50.879Z,20.40
2022-10-30T09:36:41.537Z,21.30
2022-10-30T09:39:08.528Z,15.13
2022-10-30T09:41:50.209Z,19.05
2022-10-30T09:44:26.107Z,17.27
2022-10-30T09:46:59.189Z,13.10
2022-10-30T09:49:33.241Z,15.10
2022-10-30T09:52:06.306Z,20.35
2022-10-30T09:55:09.897Z,15.32
2022-10-30T09:57:46.022Z,18.75
2022-10-30T10:00:16.575Z,17.45
2022-10-30T10:03:12.921Z,15.63
2022-10-30T10:06:02.563Z,20.45
2022-10-30T10:08:59.509Z,20.20
2022-10-30T10:12:09.774Z,15.65
2022-10-30T10:14:42.527Z,21.83
2022-10-30T10:17:13.558Z,18.80
2022-10-30T10:19:52.830Z,18.52
2022-10-30T10:22:22.436Z,15.50
2022-10-30T10:24:49.634Z,14.38
2022-10-30T10:27:54.051Z,21.63
2022-10-30T10:30:23.359Z,14.55
2022-10-30T10:33:24.525Z,18.30
2022-10-30T10:36:16.670Z,17.57
2022-10-30T10:39:02.070Z,20.42
2022-10-30T10:42:03.034Z,15.45
2022-10-30T10:44:42.003Z,18.55
2022-10-30T10:47:11.937Z,15.50
2022-10-30T10:49:44.891Z,12.38
2022-10-30T10:52:19.035Z,14.18
2022-10-30T10:54:51.947Z,16.88
2022-10-30T10:57:28.781Z,19.00
2022-10-30T11:00:15.788Z,14.40
2022-10-30T11:02:51.746Z,15.38
2022-10-30T11:05:31.959Z,15.63
2022-10-30T11:08:10.565Z,15.77
2022-10-30T11:10:37.622Z,16.73
2022-10-30T11:13:04.599Z,12.65
2022-10-30T11:15:40.096Z,13.38
2022-10-30T11:18:09.722Z,16.80
2022-10-30T11:20:42.287Z,16.42
2022-10-30T11:23:47.271Z,17.70
2022-10-30T11:26:17.158Z,12.85
2022-10-30T11:29:02.955Z,10.27
2022-10-30T11:31:35.472Z,16.77
2022-10-30T11:34:24.757Z,15.15
2022-10-30T11:36:53.498Z,13.02
2022-10-30T11:39:24.072Z,13.07
2022-10-30T11:42:04.668Z,13.15
2022-10-30T11:44:39.941Z,14.05
2022-10-30T11:47:08.351Z,12.50
2022-10-30T11:49:39.252Z,9.65
2022-10-30T11:52:07.820Z,10.38
2022-10-30T11:54:41.742Z,11.00
2022-10-30T11:57:22.948Z,11.52
2022-10-30T11:59:54.094Z,10.50
2022-10-30T12:02:24.303Z,12.00
2022-10-30T12:04:51.375Z,19.23
2022-10-30T12:07:24.424Z,9.52
2022-10-30T12:09:51.483Z,17.48
2022-10-30T12:12:23.358Z,12.27
2022-10-30T12:14:51.995Z,13.23
2022-10-30T12:17:21.372Z,16.23
2022-10-30T12:19:54.005Z,11.52
2022-10-30T12:22:28.286Z,9.85
2022-10-30T12:24:56.569Z,10.27
2022-10-30T12:27:24.073Z,9.90
2022-10-30T12:30:10.388Z,11.75
2022-10-30T12:32:56.483Z,13.20
2022-10-30T12:35:42.191Z,12.10
2022-10-30T12:38:21.756Z,15.02
2022-10-30T12:41:14.402Z,10.90
2022-10-30T12:43:46.002Z,10.73
2022-10-30T12:48:56.210Z,16.13
2022-10-30T12:51:35.580Z,15.02
2022-10-30T12:54:20.768Z,12.52
2022-10-30T12:56:51.762Z,14.15
2022-10-30T12:59:39.238Z,9.95
2022-10-30T13:02:44.567Z,12.23
2022-10-30T13:05:36.207Z,16.85
2022-10-30T13:08:21.365Z,13.73
2022-10-30T13:11:10.437Z,11.77
2022-10-30T13:13:42.773Z,10.18
2022-10-30T13:16:30.053Z,12.50
2022-10-30T13:19:00.321Z,8.02
2022-10-30T13:21:56.908Z,8.73
2022-10-30T13:24:42.614Z,11.38
2022-10-30T13:27:23.526Z,10.32
2022-10-30T13:30:05.636Z,4.67
2022-10-30T13:32:38.741Z,8.73
2022-10-30T13:35:24.200Z,9.65
2022-10-30T13:38:14.873Z,60.92
2022-10-30T13:41:01.611Z,50.60
2022-10-30T13:43:43.415Z,31.77
2022-10-30T13:46:16.331Z,12.13
2022-10-30T13:48:58.490Z,10.32
2022-10-30T13:51:52.857Z,11.50
2022-10-30T13:54:32.289Z,8.40
2022-10-30T13:57:26.117Z,11.20
2022-10-30T14:00:02.014Z,10.90
2022-10-30T14:02:45.315Z,5.93
2022-10-30T14:05:35.039Z,11.10
2022-10-30T14:08:33.533Z,11.85
2022-10-30T14:11:01.192Z,9.73
2022-10-30T14:13:43.944Z,7.55
2022-10-30T14:16:46.547Z,7.97
2022-10-30T14:19:15.246Z,5.53
2022-10-30T14:21:51.069Z,5.53
2022-10-30T14:24:24.698Z,10.13
2022-10-30T14:26:54.840Z,8.95
2022-10-30T14:29:40.740Z,12.50
2022-10-30T14:32:27.931Z,4.63
2022-10-30T14:34:54.903Z,10.20
2022-10-30T14:37:24.918Z,16.17
2022-10-30T14:39:52.321Z,9.88
2022-10-30T14:42:39.363Z,12.20
2022-10-30T14:45:15.224Z,11.60
2022-10-30T14:47:49.498Z,7.38
2022-10-30T14:50:34.867Z,13.45
2022-10-30T14:53:40.468Z,12.43
2022-10-30T14:56:13.298Z,11.45
2022-10-30T14:58:40.806Z,8.70
2022-10-30T15:01:28.314Z,10.35
2022-10-30T15:04:19.435Z,10.23
2022-10-30T15:07:11.473Z,13.97
2022-10-30T15:10:06.483Z,15.20
2022-10-30T15:12:52.247Z,8.93
2022-10-30T15:15:19.400Z,5.70
2022-10-30T15:17:49.182Z,6.93
2022-10-30T15:20:32.950Z,10.50
2022-10-30T15:23:06.806Z,7.88
2022-10-30T15:25:38.004Z,14.55
2022-10-30T15:28:05.912Z,11.27
2022-10-30T15:30:32.920Z,14.38
2022-10-30T15:33:00.356Z,11.70
2022-10-30T15:35:29.139Z,10.98
2022-10-30T15:37:57.788Z,8.13
2022-10-30T15:40:25.243Z,12.35
2022-10-30T15:42:53.420Z,8.18
2022-10-30T15:45:25.069Z,12.80
2022-10-30T15:50:25.356Z,13.05
2022-10-30T15:52:52.479Z,8.65
2022-10-30T15:55:25.989Z,12.15
2022-10-30T15:58:12.972Z,8.75
2022-10-30T16:00:40.312Z,8.35
2022-10-30T16:03:13.102Z,6.78
2022-10-30T16:05:40.199Z,10.82
2022-10-30T16:08:20.730Z,8.43
2022-10-30T16:10:48.998Z,8.93
2022-10-30T16:13:18.265Z,10.38
2022-10-30T16:15:46.590Z,11.07
2022-10-30T16:18:19.272Z,4.93
2022-10-30T16:20:58.096Z,9.23
2022-10-30T16:23:25.172Z,9.77
2022-10-30T16:25:57.723Z,9.35
2022-10-30T16:28:34.792Z,12.07
2022-10-30T16:31:05.663Z,6.60
2022-10-30T16:33:35.105Z,8.73
2022-10-30T16:36:04.596Z,12.02
2022-10-30T16:38:35.275Z,11.68
2022-10-30T16:41:05.907Z,7.13
2022-10-30T16:43:34.716Z,6.13
2022-10-30T16:46:32.401Z,10.25
2022-10-30T16:49:03.442Z,13.73
2022-10-30T16:51:30.796Z,23.30
2022-10-30T16:53:57.810Z,14.07
2022-10-30T16:56:27.948Z,10.60
2022-10-30T16:59:05.111Z,9.40
2022-10-30T17:01:32.903Z,12.77
2022-10-30T17:04:00.385Z,10.02
2022-10-30T17:06:42.292Z,7.75
2022-10-30T17:11:44.616Z,13.15
2022-10-30T17:14:20.005Z,9.10
2022-10-30T17:16:56.281Z,8.77
2022-10-30T17:19:32.399Z,9.50
2022-10-30T17:22:02.372Z,9.88
2022-10-30T17:24:35.029Z,12.77
2022-10-30T17:27:04.615Z,11.75
2022-10-30T17:29:37.603Z,8.23
2022-10-30T17:32:05.986Z,11.70
2022-10-30T17:34:39.092Z,8.45
2022-10-30T17:37:06.059Z,12.07
2022-10-30T17:39:33.042Z,13.82
2022-10-30T17:42:00.055Z,12.85
2022-10-30T17:44:31.171Z,10.50
2022-10-30T17:46:58.551Z,12.65
2022-10-30T17:49:29.034Z,10.27
2022-10-30T17:51:56.063Z,8.75
2022-10-30T17:54:23.623Z,7.72
2022-10-30T17:56:50.599Z,8.80
2022-10-30T17:59:17.870Z,9.18
2022-10-30T18:01:44.997Z,10.10
2022-10-30T18:04:20.480Z,20.73
2022-10-30T18:06:48.497Z,16.95
2022-10-30T18:09:15.802Z,11.38
2022-10-30T18:11:42.902Z,17.08
2022-10-30T18:14:11.278Z,8.88
2022-10-30T18:16:39.021Z,8.77
2022-10-30T18:19:10.452Z,16.27
2022-10-30T18:21:37.838Z,8.13
2022-10-30T18:24:15.162Z,10.60
2022-10-30T18:26:42.160Z,11.32
2022-10-30T18:29:09.700Z,11.95
2022-10-30T18:31:37.926Z,11.88
2022-10-30T18:34:13.811Z,10.40
2022-10-30T18:36:40.825Z,9.25
2022-10-30T18:39:07.822Z,12.00
2022-10-30T18:41:37.807Z,18.90
2022-10-30T18:44:05.019Z,17.58
2022-10-30T18:46:33.363Z,16.65
2022-10-30T18:49:00.421Z,17.25
2022-10-30T18:51:28.456Z,24.50
2022-10-30T18:53:55.742Z,9.23
2022-10-30T18:56:31.274Z,11.82
2022-10-30T18:59:02.139Z,12.00
2022-10-30T19:01:33.026Z,11.70
2022-10-30T19:04:00.559Z,12.02
2022-10-30T19:06:27.621Z,15.80
2022-10-30T19:08:54.773Z,8.70
2022-10-30T19:11:24.979Z,13.85
2022-10-30T19:13:53.909Z,11.65
2022-10-30T19:16:21.758Z,13.05
2022-10-30T19:18:48.922Z,15.43
2022-10-30T19:21:18.160Z,15.32
2022-10-30T19:23:45.481Z,23.27
2022-10-30T19:26:12.622Z,20.80
2022-10-30T19:28:40.229Z,14.82
2022-10-30T19:31:07.851Z,14.45
2022-10-30T19:33:34.876Z,13.23
2022-10-30T19:36:04.171Z,13.55
2022-10-30T19:38:32.029Z,17.50
2022-10-30T19:41:00.770Z,12.68
2022-10-30T19:43:27.773Z,10.63
2022-10-30T19:45:55.990Z,18.02
2022-10-30T19:51:11.087Z,12.75
2022-10-30T19:53:38.895Z,16.67
2022-10-30T19:56:06.289Z,19.95
2022-10-30T19:58:33.276Z,13.93
2022-10-30T20:01:00.317Z,18.73
2022-10-30T20:03:27.412Z,17.08
2022-10-30T20:05:54.426Z,15.43
2022-10-30T20:08:23.267Z,17.42
2022-10-30T20:10:57.156Z,15.18
2022-10-30T20:13:25.940Z,12.02
2022-10-30T20:15:54.484Z,17.15
2022-10-30T20:18:27.832Z,13.70
2022-10-30T20:20:57.197Z,10.70
2022-10-30T20:23:24.979Z,17.08
2022-10-30T20:25:53.980Z,15.43
2022-10-30T20:28:22.618Z,14.00
2022-10-30T20:30:51.009Z,15.73
2022-10-30T20:33:19.026Z,15.30
2022-10-30T20:35:48.525Z,12.65
2022-10-30T20:38:18.060Z,20.08
2022-10-30T20:40:48.766Z,12.38
2022-10-30T20:43:18.686Z,14.80
2022-10-30T20:45:45.922Z,12.18
2022-10-30T20:48:13.343Z,12.13
2022-10-30T20:50:41.579Z,11.70
2022-10-30T20:53:12.793Z,11.10
2022-10-30T20:55:40.540Z,9.65
2022-10-30T20:58:07.760Z,11.60
2022-10-30T21:00:34.771Z,12.15
2022-10-30T21:03:03.305Z,12.05
2022-10-30T21:05:48.548Z,10.85
2022-10-30T21:08:15.580Z,12.32
2022-10-30T21:10:42.648Z,12.55
2022-10-30T21:13:11.064Z,14.73
2022-10-30T21:15:43.136Z,11.43
2022-10-30T21:18:12.897Z,16.20
2022-10-30T21:20:40.301Z,17.73
2022-10-30T21:23:07.818Z,18.08
2022-10-30T21:25:35.047Z,18.25
2022-10-30T21:28:02.528Z,19.80
2022-10-30T21:30:30.309Z,18.50
2022-10-30T21:32:58.854Z,19.45
2022-10-30T21:35:26.787Z,20.05
2022-10-30T21:37:53.992Z,14.38
2022-10-30T21:40:21.008Z,14.45
2022-10-30T21:42:48.513Z,13.35
2022-10-30T21:45:15.833Z,11.15
2022-10-30T21:47:42.849Z,10.82
2022-10-30T21:50:12.246Z,12.07
2022-10-30T21:52:40.416Z,19.13
2022-10-30T21:55:07.995Z,79.15
2022-10-30T21:57:35.480Z,24.60
2022-10-30T22:00:05.767Z,15.63
2022-10-30T22:02:35.564Z,17.80
2022-10-30T22:05:02.559Z,13.55
2022-10-30T22:07:30.563Z,22.52
2022-10-30T22:09:57.699Z,16.15
2022-10-30T22:12:24.678Z,10.82
2022-10-30T22:14:51.742Z,13.57
2022-10-30T22:17:18.847Z,14.15
2022-10-30T22:19:45.855Z,11.25
2022-10-30T22:22:12.902Z,15.98
2022-10-30T22:24:39.933Z,15.27
2022-10-30T22:27:06.964Z,11.35
2022-10-30T22:29:34.086Z,18.77
2022-10-30T22:32:01.131Z,16.52
2022-10-30T22:34:28.265Z,13.38
2022-10-30T22:36:55.273Z,15.35
2022-10-30T22:39:22.733Z,16.50
2022-10-30T22:41:49.711Z,14.45
2022-10-30T22:44:16.706Z,18.10
2022-10-30T22:46:43.819Z,20.27
2022-10-30T22:49:11.490Z,15.57
2022-10-30T22:51:39.432Z,14.40
2022-10-30T22:54:11.069Z,15.73
2022-10-30T22:56:39.134Z,13.07
2022-10-30T22:59:10.604Z,16.40
2022-10-30T23:01:38.594Z,12.57
2022-10-30T23:04:07.157Z,14.50
2022-10-30T23:06:35.265Z,12.85
2022-10-30T23:09:06.285Z,18.55
2022-10-30T23:11:33.706Z,11.57
2022-10-30T23:14:00.910Z,12.32
2022-10-30T23:16:28.309Z,13.73
2022-10-30T23:18:57.476Z,12.20
2022-10-30T23:21:26.152Z,12.35
2022-10-30T23:23:54.083Z,12.73
2022-10-30T23:26:24.359Z,14.40
2022-10-30T23:28:52.937Z,13.10
2022-10-30T23:31:35.981Z,12.13
2022-10-30T23:34:06.740Z,12.02
2022-10-30T23:36:33.816Z,10.02
2022-10-30T23:39:02.571Z,13.77
2022-10-30T23:41:31.548Z,9.85
2022-10-30T23:44:01.383Z,13.95
2022-10-30T23:46:29.499Z,18.42
2022-10-30T23:48:57.175Z,13.77
2022-10-30T23:51:24.937Z,11.05
2022-10-30T23:53:52.007Z,19.70
2022-10-30T23:56:19.773Z,14.20
2022-10-30T23:58:48.906Z,12.07
